createdAt,value
2022-08-30T00:00:00.834Z,1.60
2022-08-30T00:02:30.336Z,2.10
2022-08-30T00:05:01.631Z,2.03
2022-08-30T00:07:28.825Z,1.60
2022-08-30T00:09:55.754Z,1.87
2022-08-30T00:12:22.801Z,2.13
2022-08-30T00:14:49.763Z,2.03
2022-08-30T00:17:16.746Z,2.20
2022-08-30T00:19:46.655Z,1.90
2022-08-30T00:22:13.655Z,1.90
2022-08-30T00:24:40.814Z,1.90
2022-08-30T00:27:07.745Z,1.93
2022-08-30T00:29:37.280Z,2.13
2022-08-30T00:32:05.692Z,2.20
2022-08-30T00:34:32.939Z,2.17
2022-08-30T00:37:00.243Z,2.13
2022-08-30T00:39:27.258Z,1.90
2022-08-30T00:41:54.331Z,2.07
2022-08-30T00:44:24.208Z,2.30
2022-08-30T00:46:51.131Z,2.30
2022-08-30T00:49:20.944Z,2.03
2022-08-30T00:51:48.449Z,2.33
2022-08-30T00:54:20.122Z,2.60
2022-08-30T00:56:49.174Z,1.80
2022-08-30T00:59:16.434Z,2.10
2022-08-30T01:01:43.799Z,1.70
2022-08-30T01:04:13.614Z,1.70
2022-08-30T01:06:41.847Z,2.07
2022-08-30T01:09:09.245Z,2.13
2022-08-30T01:11:37.965Z,1.70
2022-08-30T01:14:06.858Z,1.53
2022-08-30T01:16:35.917Z,1.83
2022-08-30T01:19:05.431Z,1.73
2022-08-30T01:21:47.428Z,1.83
2022-08-30T01:24:14.978Z,1.90
2022-08-30T01:26:42.090Z,2.10
2022-08-30T01:29:18.195Z,2.73
2022-08-30T01:31:46.168Z,1.77
2022-08-30T01:34:15.384Z,1.63
2022-08-30T01:36:50.473Z,1.53
2022-08-30T01:39:21.004Z,1.70
2022-08-30T01:41:50.437Z,1.67
2022-08-30T01:44:17.698Z,1.90
2022-08-30T01:46:50.081Z,2.10
2022-08-30T01:49:27.402Z,1.57
2022-08-30T01:52:00.961Z,2.07
2022-08-30T01:54:37.013Z,2.27
2022-08-30T01:57:09.932Z,2.03
2022-08-30T01:59:41.045Z,1.80
2022-08-30T02:02:10.733Z,2.60
2022-08-30T02:04:37.633Z,1.80
2022-08-30T02:07:07.705Z,1.80
2022-08-30T02:09:34.917Z,2.13
2022-08-30T02:12:02.210Z,2.17
2022-08-30T02:14:29.078Z,2.20
2022-08-30T02:16:58.676Z,2.10
2022-08-30T02:19:28.321Z,1.90
2022-08-30T02:21:55.460Z,3.13
2022-08-30T02:24:25.251Z,1.70
2022-08-30T02:26:53.320Z,1.90
2022-08-30T02:29:22.481Z,2.43
2022-08-30T02:31:54.377Z,2.73
2022-08-30T02:34:24.505Z,2.40
2022-08-30T02:36:51.685Z,2.27
2022-08-30T02:39:18.573Z,2.07
2022-08-30T02:41:48.391Z,2.60
2022-08-30T02:44:15.870Z,2.87
2022-08-30T02:46:42.859Z,2.40
2022-08-30T02:49:32.756Z,2.30
2022-08-30T02:51:59.261Z,2.47
2022-08-30T02:54:28.718Z,2.40
2022-08-30T02:56:58.734Z,2.33
2022-08-30T02:59:26.862Z,1.90
2022-08-30T03:01:53.771Z,2.30
2022-08-30T03:04:26.528Z,2.50
2022-08-30T03:06:54.299Z,2.33
2022-08-30T03:09:22.218Z,2.97
2022-08-30T03:11:49.236Z,2.20
2022-08-30T03:14:16.213Z,2.30
2022-08-30T03:16:45.825Z,2.53
2022-08-30T03:19:12.871Z,2.83
2022-08-30T03:21:44.904Z,2.90
2022-08-30T03:24:13.484Z,2.50
2022-08-30T03:26:44.302Z,2.90
2022-08-30T03:29:13.520Z,2.30
2022-08-30T03:31:52.445Z,2.17
2022-08-30T03:34:21.940Z,2.30
2022-08-30T03:36:49.851Z,4.03
2022-08-30T03:39:16.801Z,3.50
2022-08-30T03:41:43.761Z,2.07
2022-08-30T03:44:10.705Z,2.80
2022-08-30T03:46:38.555Z,3.20
2022-08-30T03:49:06.550Z,2.30
2022-08-30T03:51:33.883Z,3.00
2022-08-30T03:54:03.899Z,2.20
2022-08-30T03:56:31.165Z,2.70
2022-08-30T03:59:00.603Z,3.10
2022-08-30T04:01:27.721Z,2.60
2022-08-30T04:03:56.618Z,2.53
2022-08-30T04:06:24.561Z,2.57
2022-08-30T04:08:51.853Z,2.10
2022-08-30T04:11:20.613Z,2.10
2022-08-30T04:13:51.967Z,2.60
2022-08-30T04:16:22.979Z,2.30
2022-08-30T04:18:50.021Z,3.67
2022-08-30T04:21:19.769Z,2.80
2022-08-30T04:23:48.818Z,2.83
2022-08-30T04:26:15.938Z,2.50
2022-08-30T04:28:42.958Z,2.73
2022-08-30T04:31:16.568Z,2.60
2022-08-30T04:33:44.501Z,2.10
2022-08-30T04:36:13.831Z,2.40
2022-08-30T04:38:42.597Z,4.17
2022-08-30T04:41:19.013Z,3.23
2022-08-30T04:43:53.024Z,2.90
2022-08-30T04:46:22.352Z,2.60
2022-08-30T04:48:49.664Z,2.37
2022-08-30T04:51:18.725Z,3.70
2022-08-30T04:53:48.674Z,2.47
2022-08-30T04:56:20.164Z,2.50
2022-08-30T04:58:49.022Z,3.27
2022-08-30T05:01:23.881Z,2.70
2022-08-30T05:03:54.910Z,2.63
2022-08-30T05:06:23.843Z,2.80
2022-08-30T05:08:54.370Z,3.37
2022-08-30T05:11:22.083Z,3.23
2022-08-30T05:13:49.870Z,3.23
2022-08-30T05:16:19.536Z,2.80
2022-08-30T05:18:51.851Z,2.30
2022-08-30T05:21:28.321Z,2.70
2022-08-30T05:23:58.252Z,2.90
2022-08-30T05:26:31.444Z,2.40
2022-08-30T05:28:58.776Z,2.93
2022-08-30T05:31:29.825Z,2.40
2022-08-30T05:33:58.052Z,2.57
2022-08-30T05:36:29.574Z,2.67
2022-08-30T05:38:57.117Z,2.97
2022-08-30T05:41:27.303Z,2.83
2022-08-30T05:44:00.184Z,2.70
2022-08-30T05:49:06.555Z,3.03
2022-08-30T05:51:43.074Z,2.40
2022-08-30T05:54:15.041Z,2.70
2022-08-30T05:56:45.300Z,2.87
2022-08-30T05:59:13.701Z,2.50
2022-08-30T06:01:45.009Z,2.63
2022-08-30T06:04:15.042Z,2.50
2022-08-30T06:06:46.594Z,2.47
2022-08-30T06:09:17.665Z,2.90
2022-08-30T06:11:46.189Z,1.73
2022-08-30T06:14:14.160Z,3.17
2022-08-30T06:16:46.681Z,2.80
2022-08-30T06:19:15.458Z,3.07
2022-08-30T06:21:44.094Z,2.97
2022-08-30T06:24:12.069Z,2.60
2022-08-30T06:26:42.434Z,2.47
2022-08-30T06:29:12.424Z,2.80
2022-08-30T06:31:39.426Z,2.90
2022-08-30T06:34:08.806Z,2.70
2022-08-30T06:36:36.438Z,2.90
2022-08-30T06:39:07.505Z,2.40
2022-08-30T06:41:37.287Z,2.83
2022-08-30T06:44:06.586Z,2.63
2022-08-30T06:46:37.431Z,2.33
2022-08-30T06:49:10.140Z,3.07
2022-08-30T06:51:41.207Z,2.67
2022-08-30T06:54:12.107Z,2.50
2022-08-30T06:56:55.239Z,2.53
2022-08-30T06:59:25.914Z,2.53
2022-08-30T07:01:57.523Z,2.70
2022-08-30T07:04:27.224Z,2.67
2022-08-30T07:06:57.350Z,2.03
2022-08-30T07:09:26.973Z,2.50
2022-08-30T07:11:54.455Z,2.60
2022-08-30T07:14:24.052Z,2.53
2022-08-30T07:16:52.275Z,2.70
2022-08-30T07:19:25.053Z,4.63
2022-08-30T07:21:51.977Z,2.57
2022-08-30T07:24:20.471Z,3.17
2022-08-30T07:26:53.634Z,2.43
2022-08-30T07:29:23.661Z,2.50
2022-08-30T07:31:50.665Z,2.60
2022-08-30T07:34:19.287Z,2.00
2022-08-30T07:36:47.400Z,2.07
2022-08-30T07:39:14.295Z,2.10
2022-08-30T07:41:41.281Z,2.20
2022-08-30T07:44:09.029Z,2.17
2022-08-30T07:46:40.388Z,2.00
2022-08-30T07:49:11.535Z,2.80
2022-08-30T07:51:39.259Z,2.20
2022-08-30T07:54:07.115Z,2.10
2022-08-30T07:56:36.278Z,2.10
2022-08-30T07:59:03.752Z,1.80
2022-08-30T08:01:32.731Z,1.97
2022-08-30T08:04:02.344Z,2.20
2022-08-30T08:06:29.788Z,1.60
2022-08-30T08:09:04.517Z,1.87
2022-08-30T08:11:33.964Z,1.27
2022-08-30T08:14:04.637Z,1.37
2022-08-30T08:16:38.446Z,1.47
2022-08-30T08:19:09.224Z,1.70
2022-08-30T08:21:39.587Z,1.20
2022-08-30T08:24:08.966Z,1.13
2022-08-30T08:26:41.023Z,1.50
2022-08-30T08:29:17.208Z,1.00
2022-08-30T08:31:45.817Z,1.20
2022-08-30T08:34:13.421Z,1.30
2022-08-30T08:36:40.947Z,1.37
2022-08-30T08:39:09.400Z,1.37
2022-08-30T08:42:04.691Z,1.10
2022-08-30T08:45:08.757Z,1.10
2022-08-30T08:47:40.450Z,1.27
2022-08-30T08:50:20.090Z,1.40
2022-08-30T08:53:46.154Z,1.10
2022-08-30T08:56:18.673Z,1.17
2022-08-30T08:58:55.775Z,1.00
2022-08-30T09:01:27.839Z,1.27
2022-08-30T09:03:58.006Z,1.20
2022-08-30T09:06:49.292Z,1.20
2022-08-30T09:09:22.396Z,1.20
2022-08-30T09:11:53.892Z,1.00
2022-08-30T09:14:30.063Z,1.23
2022-08-30T09:17:02.762Z,1.10
2022-08-30T09:19:40.059Z,2.37
2022-08-30T09:22:21.799Z,0.70
2022-08-30T09:25:13.794Z,1.10
2022-08-30T09:27:47.380Z,1.17
2022-08-30T09:30:27.705Z,0.90
2022-08-30T09:33:06.122Z,1.00
2022-08-30T09:35:49.908Z,1.10
2022-08-30T09:38:34.149Z,0.80
2022-08-30T09:41:28.278Z,1.20
2022-08-30T09:44:18.150Z,1.10
2022-08-30T09:46:58.684Z,1.30
2022-08-30T09:49:45.526Z,1.37
2022-08-30T09:52:30.057Z,0.80
2022-08-30T09:55:25.918Z,0.90
2022-08-30T09:58:10.088Z,1.00
2022-08-30T10:00:59.416Z,0.80
2022-08-30T10:03:40.852Z,1.00
2022-08-30T10:06:36.306Z,0.90
2022-08-30T10:09:45.458Z,0.97
2022-08-30T10:12:29.213Z,0.90
2022-08-30T10:15:19.405Z,1.10
2022-08-30T10:18:07.719Z,0.87
2022-08-30T10:20:59.118Z,1.00
2022-08-30T10:23:32.743Z,0.93
2022-08-30T10:26:19.265Z,1.03
2022-08-30T10:28:52.310Z,0.90
2022-08-30T10:32:02.230Z,3.87
2022-08-30T10:34:44.139Z,1.40
2022-08-30T10:37:18.149Z,1.13
2022-08-30T10:39:56.432Z,1.10
2022-08-30T10:42:29.137Z,1.17
2022-08-30T10:45:04.920Z,0.90
2022-08-30T10:47:45.615Z,1.00
2022-08-30T10:50:53.641Z,1.20
2022-08-30T10:53:37.198Z,0.90
2022-08-30T10:56:15.070Z,0.80
2022-08-30T10:58:43.341Z,1.00
2022-08-30T11:01:32.136Z,0.90
2022-08-30T11:04:07.974Z,0.87
2022-08-30T11:07:13.853Z,0.73
2022-08-30T11:10:15.242Z,3.70
2022-08-30T11:13:13.428Z,1.00
2022-08-30T11:16:09.864Z,0.80
2022-08-30T11:18:52.062Z,1.07
2022-08-30T11:21:37.987Z,0.83
2022-08-30T11:24:21.840Z,1.00
2022-08-30T11:26:48.634Z,1.17
2022-08-30T11:29:32.715Z,1.00
2022-08-30T11:32:24.280Z,0.80
2022-08-30T11:34:59.854Z,0.80
2022-08-30T11:37:42.250Z,0.90
2022-08-30T11:40:24.613Z,0.80
2022-08-30T11:42:55.447Z,0.83
2022-08-30T11:45:28.084Z,1.00
2022-08-30T11:48:04.367Z,0.90
2022-08-30T11:50:47.786Z,1.33
2022-08-30T11:53:37.423Z,1.13
2022-08-30T11:56:29.970Z,0.93
2022-08-30T11:59:21.782Z,1.00
2022-08-30T12:01:52.176Z,0.93
2022-08-30T12:04:24.654Z,1.00
2022-08-30T12:07:07.980Z,1.50
2022-08-30T12:09:35.256Z,1.00
2022-08-30T12:12:47.663Z,0.90
2022-08-30T12:15:55.987Z,1.10
2022-08-30T12:18:30.682Z,1.33
2022-08-30T12:21:05.430Z,1.20
2022-08-30T12:23:44.245Z,1.20
2022-08-30T12:26:16.748Z,1.57
2022-08-30T12:28:51.863Z,1.17
2022-08-30T12:31:26.709Z,1.50
2022-08-30T12:34:00.816Z,1.37
2022-08-30T12:36:43.383Z,1.40
2022-08-30T12:39:53.605Z,1.07
2022-08-30T12:42:24.491Z,1.10
2022-08-30T12:44:59.922Z,1.23
2022-08-30T12:47:52.085Z,1.30
2022-08-30T12:50:31.471Z,2.03
2022-08-30T12:53:13.887Z,2.13
2022-08-30T12:56:09.280Z,1.63
2022-08-30T12:58:50.837Z,1.20
2022-08-30T13:01:36.132Z,1.40
2022-08-30T13:04:32.438Z,1.30
2022-08-30T13:07:03.894Z,1.30
2022-08-30T13:09:44.471Z,1.60
2022-08-30T13:12:28.417Z,1.20
2022-08-30T13:15:42.038Z,1.40
2022-08-30T13:18:32.931Z,1.30
2022-08-30T13:21:26.078Z,1.20
2022-08-30T13:24:01.686Z,1.53
2022-08-30T13:26:36.041Z,1.20
2022-08-30T13:29:10.297Z,1.73
2022-08-30T13:31:39.893Z,1.60
2022-08-30T13:34:12.339Z,1.50
2022-08-30T13:37:07.477Z,1.17
2022-08-30T13:39:59.166Z,1.40
2022-08-30T13:42:35.222Z,1.40
2022-08-30T13:45:03.711Z,1.73
2022-08-30T13:47:37.687Z,1.70
2022-08-30T13:50:08.602Z,1.60
2022-08-30T13:52:36.773Z,1.30
2022-08-30T13:55:04.218Z,1.67
2022-08-30T14:00:23.549Z,1.40
2022-08-30T14:02:57.730Z,1.70
2022-08-30T14:05:54.589Z,1.43
2022-08-30T14:08:48.533Z,1.27
2022-08-30T14:11:22.390Z,1.23
2022-08-30T14:16:46.519Z,1.50
2022-08-30T14:19:17.950Z,1.37
2022-08-30T14:21:48.901Z,1.20
2022-08-30T14:24:20.219Z,1.30
2022-08-30T14:26:54.246Z,1.20
2022-08-30T14:29:29.957Z,2.20
2022-08-30T14:32:00.515Z,1.40
2022-08-30T14:34:29.854Z,1.20
2022-08-30T14:36:56.829Z,1.10
2022-08-30T14:39:26.790Z,1.70
2022-08-30T14:41:55.756Z,1.23
2022-08-30T14:44:24.151Z,1.27
2022-08-30T14:46:51.837Z,1.20
2022-08-30T14:49:21.019Z,1.13
2022-08-30T14:51:53.482Z,1.23
2022-08-30T14:54:27.286Z,1.30
2022-08-30T14:56:58.115Z,1.23
2022-08-30T14:59:28.726Z,1.07
2022-08-30T15:01:55.717Z,1.53
2022-08-30T15:04:23.143Z,1.10
2022-08-30T15:06:51.017Z,1.60
2022-08-30T15:09:24.645Z,1.13
2022-08-30T15:11:58.709Z,1.30
2022-08-30T15:14:31.953Z,1.30
2022-08-30T15:17:02.760Z,1.43
2022-08-30T15:19:31.466Z,1.20
2022-08-30T15:22:09.312Z,1.73
2022-08-30T15:24:40.815Z,1.30
2022-08-30T15:27:07.752Z,1.57
2022-08-30T15:29:35.045Z,1.40
2022-08-30T15:32:03.954Z,1.50
2022-08-30T15:34:37.665Z,1.53
2022-08-30T15:37:05.120Z,1.40
2022-08-30T15:39:33.340Z,1.43
2022-08-30T15:42:01.666Z,1.07
2022-08-30T15:44:31.354Z,1.60
2022-08-30T15:46:58.755Z,1.40
2022-08-30T15:49:27.985Z,1.57
2022-08-30T15:51:54.916Z,1.70
2022-08-30T15:54:23.703Z,1.53
2022-08-30T15:56:59.002Z,1.30
2022-08-30T15:59:33.156Z,1.60
2022-08-30T16:02:00.249Z,1.50
2022-08-30T16:04:27.372Z,1.50
2022-08-30T16:06:54.706Z,1.30
2022-08-30T16:09:24.927Z,1.30
2022-08-30T16:11:54.060Z,1.20
2022-08-30T16:14:23.994Z,1.80
2022-08-30T16:16:51.896Z,1.10
2022-08-30T16:19:18.901Z,1.13
2022-08-30T16:21:47.440Z,1.40
2022-08-30T16:24:18.125Z,1.13
2022-08-30T16:26:51.931Z,1.40
2022-08-30T16:29:21.372Z,1.40
2022-08-30T16:31:50.871Z,1.20
2022-08-30T16:34:21.966Z,1.70
2022-08-30T16:36:49.213Z,1.33
2022-08-30T16:39:18.965Z,1.40
2022-08-30T16:41:47.578Z,1.73
2022-08-30T16:44:15.899Z,1.17
2022-08-30T16:46:43.156Z,1.70
2022-08-30T16:49:19.400Z,1.30
2022-08-30T16:51:46.614Z,1.60
2022-08-30T16:54:13.961Z,1.53
2022-08-30T16:56:40.886Z,1.27
2022-08-30T16:59:11.219Z,1.03
2022-08-30T17:01:39.568Z,1.20
2022-08-30T17:04:10.447Z,1.17
2022-08-30T17:06:37.657Z,0.90
2022-08-30T17:09:07.106Z,1.10
2022-08-30T17:11:43.301Z,1.20
2022-08-30T17:14:12.797Z,1.03
2022-08-30T17:16:41.544Z,1.10
2022-08-30T17:19:11.686Z,1.30
2022-08-30T17:21:40.989Z,1.00
2022-08-30T17:24:10.257Z,1.07
2022-08-30T17:26:40.053Z,1.23
2022-08-30T17:29:09.497Z,0.90
2022-08-30T17:31:42.969Z,0.80
2022-08-30T17:34:11.697Z,1.00
2022-08-30T17:36:39.015Z,0.87
2022-08-30T17:39:11.151Z,1.20
2022-08-30T17:41:49.921Z,0.87
2022-08-30T17:44:19.779Z,0.90
2022-08-30T17:46:51.760Z,0.97
2022-08-30T17:49:18.792Z,0.80
2022-08-30T17:51:56.272Z,1.30
2022-08-30T17:54:25.997Z,0.83
2022-08-30T17:56:55.123Z,1.07
2022-08-30T17:59:25.724Z,1.00
2022-08-30T18:01:55.167Z,1.10
2022-08-30T18:04:24.743Z,1.30
2022-08-30T18:06:52.711Z,1.40
2022-08-30T18:09:19.997Z,0.80
2022-08-30T18:11:49.395Z,1.07
2022-08-30T18:14:17.265Z,0.80
2022-08-30T18:19:33.067Z,2.90
2022-08-30T18:22:00.325Z,0.80
2022-08-30T18:24:32.902Z,0.97
2022-08-30T18:27:01.995Z,0.90
2022-08-30T18:29:32.298Z,0.93
2022-08-30T18:32:05.943Z,0.70
2022-08-30T18:34:36.322Z,0.80
2022-08-30T18:37:03.312Z,0.80
2022-08-30T18:39:34.413Z,1.10
2022-08-30T18:42:06.173Z,1.10
2022-08-30T18:44:36.534Z,0.90
2022-08-30T18:47:05.669Z,0.97
2022-08-30T18:49:34.700Z,0.70
2022-08-30T18:52:06.575Z,0.90
2022-08-30T18:54:47.289Z,0.70
2022-08-30T18:57:18.891Z,0.80
2022-08-30T18:59:45.822Z,0.93
2022-08-30T19:02:15.832Z,1.00
2022-08-30T19:04:45.498Z,1.07
2022-08-30T19:07:15.958Z,0.90
2022-08-30T19:09:45.501Z,0.80
2022-08-30T19:12:15.535Z,0.97
2022-08-30T19:14:43.187Z,0.80
2022-08-30T19:17:10.838Z,1.03
2022-08-30T19:19:48.845Z,0.90
2022-08-30T19:22:21.484Z,0.80
2022-08-30T19:24:50.255Z,0.97
2022-08-30T19:27:21.425Z,0.80
2022-08-30T19:29:53.697Z,0.73
2022-08-30T19:32:21.696Z,1.00
2022-08-30T19:34:51.743Z,0.70
2022-08-30T19:37:22.452Z,1.10
2022-08-30T19:39:55.138Z,0.97
2022-08-30T19:42:25.240Z,1.00
2022-08-30T19:44:52.779Z,0.83
2022-08-30T19:47:26.561Z,0.73
2022-08-30T19:49:54.385Z,0.80
2022-08-30T19:52:21.435Z,1.00
2022-08-30T19:54:50.590Z,0.80
2022-08-30T19:57:17.562Z,0.83
2022-08-30T19:59:45.183Z,0.80
2022-08-30T20:02:15.173Z,0.80
2022-08-30T20:04:42.513Z,0.73
2022-08-30T20:07:09.859Z,0.87
2022-08-30T20:09:37.380Z,0.80
2022-08-30T20:12:06.922Z,1.00
2022-08-30T20:14:33.871Z,0.90
2022-08-30T20:17:02.328Z,0.83
2022-08-30T20:19:29.671Z,1.37
2022-08-30T20:21:59.330Z,1.10
2022-08-30T20:24:27.246Z,0.77
2022-08-30T20:27:06.249Z,1.10
2022-08-30T20:29:34.397Z,1.10
2022-08-30T20:32:03.179Z,0.93
2022-08-30T20:34:30.185Z,0.90
2022-08-30T20:36:58.599Z,1.20
2022-08-30T20:39:25.946Z,1.30
2022-08-30T20:42:00.093Z,1.37
2022-08-30T20:44:27.087Z,1.20
2022-08-30T20:46:54.206Z,0.90
2022-08-30T20:49:21.445Z,0.83
2022-08-30T20:51:54.200Z,0.80
2022-08-30T20:54:21.864Z,0.80
2022-08-30T20:56:50.030Z,0.90
2022-08-30T20:59:17.208Z,1.50
2022-08-30T21:01:44.620Z,0.93
2022-08-30T21:04:13.267Z,0.80
2022-08-30T21:06:40.188Z,0.80
2022-08-30T21:09:08.892Z,0.93
2022-08-30T21:11:37.395Z,0.80
2022-08-30T21:14:05.022Z,0.93
2022-08-30T21:16:31.999Z,0.70
2022-08-30T21:18:58.888Z,1.60
2022-08-30T21:21:30.400Z,0.93
2022-08-30T21:24:03.005Z,0.80
2022-08-30T21:26:31.412Z,0.70
2022-08-30T21:28:59.462Z,0.70
2022-08-30T21:31:30.360Z,0.70
2022-08-30T21:33:57.526Z,0.70
2022-08-30T21:36:45.618Z,0.63
2022-08-30T21:39:22.749Z,1.07
2022-08-30T21:41:54.515Z,0.80
2022-08-30T21:44:25.610Z,0.87
2022-08-30T21:46:53.794Z,0.60
2022-08-30T21:49:24.852Z,0.70
2022-08-30T21:51:54.729Z,0.90
2022-08-30T21:54:23.435Z,1.00
2022-08-30T21:56:52.768Z,1.23
2022-08-30T21:59:24.736Z,1.00
2022-08-30T22:01:51.888Z,1.10
2022-08-30T22:04:21.056Z,0.80
2022-08-30T22:06:52.043Z,0.97
2022-08-30T22:09:24.460Z,0.97
2022-08-30T22:11:52.357Z,0.80
2022-08-30T22:14:20.782Z,0.77
2022-08-30T22:16:48.870Z,1.03
2022-08-30T22:19:19.763Z,0.63
2022-08-30T22:21:51.986Z,0.70
2022-08-30T22:24:21.796Z,0.80
2022-08-30T22:26:51.516Z,0.90
2022-08-30T22:29:18.587Z,0.83
2022-08-30T22:31:48.125Z,0.80
2022-08-30T22:34:15.045Z,0.80
2022-08-30T22:36:42.056Z,0.90
2022-08-30T22:39:09.677Z,1.10
2022-08-30T22:41:37.892Z,0.80
2022-08-30T22:44:06.358Z,1.07
2022-08-30T22:46:35.085Z,0.90
2022-08-30T22:49:08.135Z,1.10
2022-08-30T22:51:39.483Z,0.90
2022-08-30T22:54:08.188Z,2.00
2022-08-30T22:56:39.489Z,1.03
2022-08-30T22:59:08.961Z,1.10
2022-08-30T23:01:39.987Z,1.20
2022-08-30T23:04:11.524Z,1.20
2022-08-30T23:06:39.162Z,1.13
2022-08-30T23:09:11.371Z,1.00
2022-08-30T23:11:38.632Z,1.00
2022-08-30T23:14:11.608Z,1.00
2022-08-30T23:16:40.705Z,1.10
2022-08-30T23:19:07.663Z,0.90
2022-08-30T23:21:39.563Z,0.93
2022-08-30T23:24:27.871Z,1.20
2022-08-30T23:27:13.176Z,0.87
2022-08-30T23:30:00.208Z,0.90
2022-08-30T23:32:45.326Z,1.10
2022-08-30T23:35:31.910Z,0.83
2022-08-30T23:38:21.004Z,0.90
2022-08-30T23:41:09.275Z,0.93
2022-08-30T23:43:56.054Z,0.87
2022-08-30T23:46:41.842Z,1.00
2022-08-30T23:49:29.770Z,1.17
2022-08-30T23:52:14.962Z,0.83
2022-08-30T23:55:02.394Z,0.63
2022-08-30T23:57:47.557Z,0.90
